sensor_id;sensor_type;location;lat;lon;timestamp;P1;durP1;ratioP1;P2;durP2;ratioP2
22284;SDS011;11311;52.192;20.900;2024-03-23T00:53:25;39.75;;;27.70;;
22284;SDS011;11311;52.192;20.900;2024-03-23T00:55:52;46.40;;;29.73;;
22284;SDS011;11311;52.192;20.900;2024-03-23T00:58:19;36.88;;;28.27;;
22284;SDS011;11311;52.192;20.900;2024-03-23T01:00:46;40.83;;;30.35;;
22284;SDS011;11311;52.192;20.900;2024-03-23T01:03:12;40.65;;;28.13;;
22284;SDS011;11311;52.192;20.900;2024-03-23T01:05:39;40.55;;;29.15;;
22284;SDS011;11311;52.192;20.900;2024-03-23T01:08:05;40.53;;;28.02;;
22284;SDS011;11311;52.192;20.900;2024-03-23T01:10:34;46.50;;;29.67;;
22284;SDS011;11311;52.192;20.900;2024-03-23T01:13:00;47.92;;;29.98;;
22284;SDS011;11311;52.192;20.900;2024-03-23T01:15:27;39.13;;;27.85;;
22284;SDS011;11311;52.192;20.900;2024-03-23T01:17:53;41.25;;;29.30;;
22284;SDS011;11311;52.192;20.900;2024-03-23T01:20:20;43.58;;;29.42;;
22284;SDS011;11311;52.192;20.900;2024-03-23T01:22:46;44.78;;;30.55;;
22284;SDS011;11311;52.192;20.900;2024-03-23T01:25:13;43.78;;;29.13;;
22284;SDS011;11311;52.192;20.900;2024-03-23T01:27:41;44.53;;;29.63;;
22284;SDS011;11311;52.192;20.900;2024-03-23T01:30:09;46.03;;;31.67;;
22284;SDS011;11311;52.192;20.900;2024-03-23T01:32:35;45.50;;;30.83;;
22284;SDS011;11311;52.192;20.900;2024-03-23T01:35:02;43.60;;;31.33;;
22284;SDS011;11311;52.192;20.900;2024-03-23T01:37:29;43.35;;;31.25;;
22284;SDS011;11311;52.192;20.900;2024-03-23T01:39:56;43.20;;;30.35;;
22284;SDS011;11311;52.192;20.900;2024-03-23T01:42:22;47.40;;;31.73;;
22284;SDS011;11311;52.192;20.900;2024-03-23T01:44:51;45.67;;;30.52;;
22284;SDS011;11311;52.192;20.900;2024-03-23T01:47:17;45.50;;;31.17;;
22284;SDS011;11311;52.192;20.900;2024-03-23T01:49:44;47.22;;;31.65;;
22284;SDS011;11311;52.192;20.900;2024-03-23T01:52:10;52.88;;;33.45;;
22284;SDS011;11311;52.192;20.900;2024-03-23T01:54:38;53.08;;;31.60;;
22284;SDS011;11311;52.192;20.900;2024-03-23T01:57:05;43.90;;;31.63;;
22284;SDS011;11311;52.192;20.900;2024-03-23T01:59:32;50.50;;;33.58;;
22284;SDS011;11311;52.192;20.900;2024-03-23T02:01:59;45.95;;;28.23;;
22284;SDS011;11311;52.192;20.900;2024-03-23T02:04:28;47.83;;;29.47;;
22284;SDS011;11311;52.192;20.900;2024-03-23T02:06:54;50.53;;;32.50;;
22284;SDS011;11311;52.192;20.900;2024-03-23T02:09:21;50.75;;;30.50;;
22284;SDS011;11311;52.192;20.900;2024-03-23T02:11:47;46.38;;;32.75;;
22284;SDS011;11311;52.192;20.900;2024-03-23T02:14:15;50.67;;;33.33;;
22284;SDS011;11311;52.192;20.900;2024-03-23T02:16:41;50.13;;;33.03;;
22284;SDS011;11311;52.192;20.900;2024-03-23T02:19:10;55.05;;;35.42;;
22284;SDS011;11311;52.192;20.900;2024-03-23T02:21:36;61.38;;;37.38;;
22284;SDS011;11311;52.192;20.900;2024-03-23T02:24:05;55.60;;;35.40;;
22284;SDS011;11311;52.192;20.900;2024-03-23T02:26:32;53.55;;;34.47;;
22284;SDS011;11311;52.192;20.900;2024-03-23T02:28:59;57.92;;;36.95;;
22284;SDS011;11311;52.192;20.900;2024-03-23T02:31:25;60.80;;;37.25;;
22284;SDS011;11311;52.192;20.900;2024-03-23T02:33:52;61.33;;;37.33;;
22284;SDS011;11311;52.192;20.900;2024-03-23T02:36:18;67.30;;;39.08;;
22284;SDS011;11311;52.192;20.900;2024-03-23T02:38:46;65.32;;;39.63;;
22284;SDS011;11311;52.192;20.900;2024-03-23T02:41:14;65.50;;;39.50;;
22284;SDS011;11311;52.192;20.900;2024-03-23T02:43:48;67.40;;;41.22;;
22284;SDS011;11311;52.192;20.900;2024-03-23T02:46:14;68.13;;;41.28;;
22284;SDS011;11311;52.192;20.900;2024-03-23T02:48:41;67.00;;;41.20;;
22284;SDS011;11311;52.192;20.900;2024-03-23T02:51:08;73.93;;;41.97;;
22284;SDS011;11311;52.192;20.900;2024-03-23T02:53:35;70.45;;;43.72;;
22284;SDS011;11311;52.192;20.900;2024-03-23T02:56:01;67.97;;;38.50;;
22284;SDS011;11311;52.192;20.900;2024-03-23T02:58:30;73.38;;;41.35;;
22284;SDS011;11311;52.192;20.900;2024-03-23T03:00:56;57.40;;;34.30;;
22284;SDS011;11311;52.192;20.900;2024-03-23T03:03:24;67.78;;;38.58;;
22284;SDS011;11311;52.192;20.900;2024-03-23T03:05:54;76.88;;;40.30;;
22284;SDS011;11311;52.192;20.900;2024-03-23T03:08:21;66.43;;;37.13;;
22284;SDS011;11311;52.192;20.900;2024-03-23T03:10:47;71.95;;;40.17;;
22284;SDS011;11311;52.192;20.900;2024-03-23T03:13:14;72.72;;;39.63;;
22284;SDS011;11311;52.192;20.900;2024-03-23T03:15:42;70.32;;;38.83;;
22284;SDS011;11311;52.192;20.900;2024-03-23T03:18:10;67.80;;;38.87;;
22284;SDS011;11311;52.192;20.900;2024-03-23T03:20:37;67.07;;;36.83;;
22284;SDS011;11311;52.192;20.900;2024-03-23T03:23:05;63.05;;;37.25;;
22284;SDS011;11311;52.192;20.900;2024-03-23T03:25:31;73.53;;;38.67;;
22284;SDS011;11311;52.192;20.900;2024-03-23T03:27:58;83.63;;;41.83;;
22284;SDS011;11311;52.192;20.900;2024-03-23T03:30:24;84.28;;;40.72;;
22284;SDS011;11311;52.192;20.900;2024-03-23T03:32:53;62.17;;;34.25;;
22284;SDS011;11311;52.192;20.900;2024-03-23T03:35:19;91.53;;;45.08;;
22284;SDS011;11311;52.192;20.900;2024-03-23T03:37:46;84.20;;;43.45;;
22284;SDS011;11311;52.192;20.900;2024-03-23T03:40:13;74.53;;;40.95;;
22284;SDS011;11311;52.192;20.900;2024-03-23T03:42:40;70.40;;;40.10;;
22284;SDS011;11311;52.192;20.900;2024-03-23T03:45:07;80.53;;;40.40;;
22284;SDS011;11311;52.192;20.900;2024-03-23T03:47:34;78.20;;;40.60;;
22284;SDS011;11311;52.192;20.900;2024-03-23T03:50:01;83.45;;;42.03;;
22284;SDS011;11311;52.192;20.900;2024-03-23T03:52:28;81.22;;;40.67;;
22284;SDS011;11311;52.192;20.900;2024-03-23T03:54:59;75.07;;;40.33;;
22284;SDS011;11311;52.192;20.900;2024-03-23T03:57:28;86.32;;;42.70;;
22284;SDS011;11311;52.192;20.900;2024-03-23T03:59:54;64.07;;;39.22;;
22284;SDS011;11311;52.192;20.900;2024-03-23T04:02:21;93.15;;;43.33;;
22284;SDS011;11311;52.192;20.900;2024-03-23T04:04:47;69.70;;;37.70;;
22284;SDS011;11311;52.192;20.900;2024-03-23T04:07:15;73.00;;;39.17;;
22284;SDS011;11311;52.192;20.900;2024-03-23T04:09:43;82.68;;;43.17;;
22284;SDS011;11311;52.192;20.900;2024-03-23T04:12:10;68.15;;;38.92;;
22284;SDS011;11311;52.192;20.900;2024-03-23T04:14:36;98.28;;;42.88;;
22284;SDS011;11311;52.192;20.900;2024-03-23T04:17:03;90.90;;;43.00;;
22284;SDS011;11311;52.192;20.900;2024-03-23T04:19:29;87.43;;;42.03;;
22284;SDS011;11311;52.192;20.900;2024-03-23T04:21:56;70.78;;;40.30;;
22284;SDS011;11311;52.192;20.900;2024-03-23T04:24:24;77.60;;;41.92;;
22284;SDS011;11311;52.192;20.900;2024-03-23T04:26:52;89.33;;;45.03;;
22284;SDS011;11311;52.192;20.900;2024-03-23T04:29:18;91.35;;;45.78;;
22284;SDS011;11311;52.192;20.900;2024-03-23T04:31:45;82.45;;;42.17;;
22284;SDS011;11311;52.192;20.900;2024-03-23T04:34:11;95.75;;;46.83;;
22284;SDS011;11311;52.192;20.900;2024-03-23T04:36:38;81.25;;;43.45;;
22284;SDS011;11311;52.192;20.900;2024-03-23T04:39:06;83.53;;;44.80;;
22284;SDS011;11311;52.192;20.900;2024-03-23T04:41:35;88.22;;;45.60;;
22284;SDS011;11311;52.192;20.900;2024-03-23T04:44:03;95.97;;;47.15;;
22284;SDS011;11311;52.192;20.900;2024-03-23T04:46:30;83.72;;;46.00;;
22284;SDS011;11311;52.192;20.900;2024-03-23T04:48:56;75.53;;;43.72;;
22284;SDS011;11311;52.192;20.900;2024-03-23T04:51:24;79.80;;;43.92;;
22284;SDS011;11311;52.192;20.900;2024-03-23T04:53:51;90.65;;;47.15;;
22284;SDS011;11311;52.192;20.900;2024-03-23T04:56:17;92.55;;;46.42;;
22284;SDS011;11311;52.192;20.900;2024-03-23T04:58:45;97.18;;;45.95;;
22284;SDS011;11311;52.192;20.900;2024-03-23T05:01:11;107.18;;;49.67;;
22284;SDS011;11311;52.192;20.900;2024-03-23T05:03:38;118.75;;;54.67;;
22284;SDS011;11311;52.192;20.900;2024-03-23T05:06:05;93.53;;;49.08;;
22284;SDS011;11311;52.192;20.900;2024-03-23T05:08:32;103.75;;;49.00;;
22284;SDS011;11311;52.192;20.900;2024-03-23T05:10:58;94.15;;;45.00;;
22284;SDS011;11311;52.192;20.900;2024-03-23T05:13:25;98.20;;;50.25;;
22284;SDS011;11311;52.192;20.900;2024-03-23T05:15:53;93.88;;;46.72;;
22284;SDS011;11311;52.192;20.900;2024-03-23T05:18:20;85.47;;;46.92;;
22284;SDS011;11311;52.192;20.900;2024-03-23T05:20:47;92.22;;;48.28;;
22284;SDS011;11311;52.192;20.900;2024-03-23T05:23:14;86.70;;;43.63;;
22284;SDS011;11311;52.192;20.900;2024-03-23T05:25:40;87.53;;;48.65;;
22284;SDS011;11311;52.192;20.900;2024-03-23T05:28:07;83.43;;;45.92;;
22284;SDS011;11311;52.192;20.900;2024-03-23T05:30:33;90.03;;;45.65;;
22284;SDS011;11311;52.192;20.900;2024-03-23T05:33:02;88.72;;;46.50;;
22284;SDS011;11311;52.192;20.900;2024-03-23T05:35:28;88.18;;;44.72;;
22284;SDS011;11311;52.192;20.900;2024-03-23T05:37:55;89.00;;;46.88;;
22284;SDS011;11311;52.192;20.900;2024-03-23T05:40:21;93.25;;;49.10;;
22284;SDS011;11311;52.192;20.900;2024-03-23T05:42:48;98.80;;;49.55;;
22284;SDS011;11311;52.192;20.900;2024-03-23T05:45:14;87.85;;;50.17;;
22284;SDS011;11311;52.192;20.900;2024-03-23T05:47:44;103.13;;;50.30;;
22284;SDS011;11311;52.192;20.900;2024-03-23T05:50:12;99.72;;;50.47;;
22284;SDS011;11311;52.192;20.900;2024-03-23T05:52:39;85.30;;;46.72;;
22284;SDS011;11311;52.192;20.900;2024-03-23T05:55:05;92.75;;;48.60;;
22284;SDS011;11311;52.192;20.900;2024-03-23T05:57:32;85.05;;;41.95;;
22284;SDS011;11311;52.192;20.900;2024-03-23T06:00:00;85.32;;;47.38;;
22284;SDS011;11311;52.192;20.900;2024-03-23T06:02:26;91.68;;;47.85;;
22284;SDS011;11311;52.192;20.900;2024-03-23T06:04:53;84.80;;;43.35;;
22284;SDS011;11311;52.192;20.900;2024-03-23T06:07:20;90.25;;;48.40;;
22284;SDS011;11311;52.192;20.900;2024-03-23T06:09:47;87.00;;;47.50;;
22284;SDS011;11311;52.192;20.900;2024-03-23T06:12:16;84.32;;;47.90;;
22284;SDS011;11311;52.192;20.900;2024-03-23T06:14:43;95.90;;;49.00;;
22284;SDS011;11311;52.192;20.900;2024-03-23T06:17:10;80.55;;;44.15;;
22284;SDS011;11311;52.192;20.900;2024-03-23T06:19:37;93.47;;;48.85;;
22284;SDS011;11311;52.192;20.900;2024-03-23T06:22:03;87.45;;;47.10;;
22284;SDS011;11311;52.192;20.900;2024-03-23T06:24:33;86.00;;;43.80;;
22284;SDS011;11311;52.192;20.900;2024-03-23T06:27:00;76.78;;;43.03;;
22284;SDS011;11311;52.192;20.900;2024-03-23T06:29:27;79.07;;;40.38;;
22284;SDS011;11311;52.192;20.900;2024-03-23T06:31:53;81.88;;;46.13;;
22284;SDS011;11311;52.192;20.900;2024-03-23T06:34:20;74.40;;;42.25;;
22284;SDS011;11311;52.192;20.900;2024-03-23T06:36:48;76.72;;;44.15;;
22284;SDS011;11311;52.192;20.900;2024-03-23T06:39:15;76.72;;;43.75;;
22284;SDS011;11311;52.192;20.900;2024-03-23T06:41:45;73.82;;;41.30;;
22284;SDS011;11311;52.192;20.900;2024-03-23T06:44:18;71.05;;;39.33;;
22284;SDS011;11311;52.192;20.900;2024-03-23T06:46:44;71.85;;;40.17;;
22284;SDS011;11311;52.192;20.900;2024-03-23T06:49:12;86.68;;;44.17;;
22284;SDS011;11311;52.192;20.900;2024-03-23T06:51:38;75.90;;;41.35;;
22284;SDS011;11311;52.192;20.900;2024-03-23T06:54:05;81.32;;;42.70;;
22284;SDS011;11311;52.192;20.900;2024-03-23T06:56:31;84.78;;;44.42;;
22284;SDS011;11311;52.192;20.900;2024-03-23T06:59:00;67.95;;;37.47;;
22284;SDS011;11311;52.192;20.900;2024-03-23T07:01:26;88.55;;;47.95;;
22284;SDS011;11311;52.192;20.900;2024-03-23T07:03:54;77.85;;;42.33;;
22284;SDS011;11311;52.192;20.900;2024-03-23T07:06:20;91.85;;;45.70;;
22284;SDS011;11311;52.192;20.900;2024-03-23T07:08:47;89.53;;;45.63;;
22284;SDS011;11311;52.192;20.900;2024-03-23T07:11:18;102.65;;;49.42;;
22284;SDS011;11311;52.192;20.900;2024-03-23T07:13:45;96.40;;;43.17;;
22284;SDS011;11311;52.192;20.900;2024-03-23T07:18:41;94.82;;;41.42;;
22284;SDS011;11311;52.192;20.900;2024-03-23T07:21:09;118.10;;;51.40;;
22284;SDS011;11311;52.192;20.900;2024-03-23T07:23:35;101.97;;;46.45;;
22284;SDS011;11311;52.192;20.900;2024-03-23T07:26:03;104.57;;;45.85;;
22284;SDS011;11311;52.192;20.900;2024-03-23T07:28:30;102.90;;;45.78;;
22284;SDS011;11311;52.192;20.900;2024-03-23T07:31:01;106.00;;;48.63;;
22284;SDS011;11311;52.192;20.900;2024-03-23T07:33:27;101.57;;;45.65;;
22284;SDS011;11311;52.192;20.900;2024-03-23T07:35:56;101.75;;;47.33;;
22284;SDS011;11311;52.192;20.900;2024-03-23T07:38:23;98.78;;;46.58;;
22284;SDS011;11311;52.192;20.900;2024-03-23T07:40:50;107.95;;;47.97;;
22284;SDS011;11311;52.192;20.900;2024-03-23T07:43:21;99.28;;;44.38;;
22284;SDS011;11311;52.192;20.900;2024-03-23T07:45:51;87.03;;;41.55;;
22284;SDS011;11311;52.192;20.900;2024-03-23T07:48:17;91.50;;;45.23;;
22284;SDS011;11311;52.192;20.900;2024-03-23T07:50:44;89.30;;;42.47;;
22284;SDS011;11311;52.192;20.900;2024-03-23T07:53:12;86.68;;;43.15;;
22284;SDS011;11311;52.192;20.900;2024-03-23T07:55:39;83.43;;;41.92;;
22284;SDS011;11311;52.192;20.900;2024-03-23T07:58:06;73.55;;;39.28;;
22284;SDS011;11311;52.192;20.900;2024-03-23T08:00:33;74.22;;;39.63;;
22284;SDS011;11311;52.192;20.900;2024-03-23T08:03:00;74.47;;;41.97;;
22284;SDS011;11311;52.192;20.900;2024-03-23T08:05:26;66.50;;;41.63;;
22284;SDS011;11311;52.192;20.900;2024-03-23T08:07:53;55.42;;;34.67;;
22284;SDS011;11311;52.192;20.900;2024-03-23T08:10:20;60.33;;;35.95;;
22284;SDS011;11311;52.192;20.900;2024-03-23T08:12:48;73.47;;;39.35;;
22284;SDS011;11311;52.192;20.900;2024-03-23T08:15:14;65.43;;;34.45;;
22284;SDS011;11311;52.192;20.900;2024-03-23T08:17:41;64.20;;;37.65;;
22284;SDS011;11311;52.192;20.900;2024-03-23T08:20:07;63.85;;;36.90;;
22284;SDS011;11311;52.192;20.900;2024-03-23T08:22:35;47.80;;;32.88;;
22284;SDS011;11311;52.192;20.900;2024-03-23T08:25:01;49.05;;;30.90;;
22284;SDS011;11311;52.192;20.900;2024-03-23T08:27:30;57.60;;;33.10;;
22284;SDS011;11311;52.192;20.900;2024-03-23T08:29:56;48.75;;;32.63;;
22284;SDS011;11311;52.192;20.900;2024-03-23T08:32:24;56.22;;;36.42;;
22284;SDS011;11311;52.192;20.900;2024-03-23T08:34:51;53.65;;;34.13;;
22284;SDS011;11311;52.192;20.900;2024-03-23T08:37:18;45.63;;;30.52;;
22284;SDS011;11311;52.192;20.900;2024-03-23T08:39:44;44.50;;;30.63;;
22284;SDS011;11311;52.192;20.900;2024-03-23T08:42:11;42.00;;;30.85;;
22284;SDS011;11311;52.192;20.900;2024-03-23T08:44:38;37.95;;;28.33;;
22284;SDS011;11311;52.192;20.900;2024-03-23T08:47:06;37.70;;;26.42;;
22284;SDS011;11311;52.192;20.900;2024-03-23T08:49:32;36.15;;;24.45;;
22284;SDS011;11311;52.192;20.900;2024-03-23T08:51:59;39.85;;;24.15;;
22284;SDS011;11311;52.192;20.900;2024-03-23T08:54:25;35.88;;;21.80;;
22284;SDS011;11311;52.192;20.900;2024-03-23T08:56:53;30.38;;;20.92;;
22284;SDS011;11311;52.192;20.900;2024-03-23T08:59:19;34.20;;;25.05;;
22284;SDS011;11311;52.192;20.900;2024-03-23T09:01:47;29.77;;;20.70;;
22284;SDS011;11311;52.192;20.900;2024-03-23T09:04:14;34.03;;;24.27;;
22284;SDS011;11311;52.192;20.900;2024-03-23T09:06:42;31.80;;;21.20;;
22284;SDS011;11311;52.192;20.900;2024-03-23T09:09:08;23.25;;;16.63;;
22284;SDS011;11311;52.192;20.900;2024-03-23T09:11:35;33.67;;;21.25;;
22284;SDS011;11311;52.192;20.900;2024-03-23T09:14:01;25.23;;;19.98;;
22284;SDS011;11311;52.192;20.900;2024-03-23T09:16:28;24.17;;;18.13;;
22284;SDS011;11311;52.192;20.900;2024-03-23T09:18:55;27.70;;;18.25;;
22284;SDS011;11311;52.192;20.900;2024-03-23T09:21:23;26.00;;;16.90;;
22284;SDS011;11311;52.192;20.900;2024-03-23T09:23:49;19.08;;;15.68;;
22284;SDS011;11311;52.192;20.900;2024-03-23T09:26:16;23.13;;;15.68;;
22284;SDS011;11311;52.192;20.900;2024-03-23T09:28:42;21.42;;;16.00;;
22284;SDS011;11311;52.192;20.900;2024-03-23T09:31:09;18.08;;;14.25;;
22284;SDS011;11311;52.192;20.900;2024-03-23T09:33:37;18.98;;;14.27;;
22284;SDS011;11311;52.192;20.900;2024-03-23T09:36:06;20.35;;;14.27;;
22284;SDS011;11311;52.192;20.900;2024-03-23T09:38:33;17.67;;;15.63;;
22284;SDS011;11311;52.192;20.900;2024-03-23T09:41:00;17.80;;;14.93;;
22284;SDS011;11311;52.192;20.900;2024-03-23T09:43:26;18.27;;;15.98;;
22284;SDS011;11311;52.192;20.900;2024-03-23T09:45:54;17.95;;;13.68;;
22284;SDS011;11311;52.192;20.900;2024-03-23T09:48:20;18.75;;;15.27;;
22284;SDS011;11311;52.192;20.900;2024-03-23T09:50:47;20.05;;;14.23;;
22284;SDS011;11311;52.192;20.900;2024-03-23T09:53:16;16.15;;;12.38;;
22284;SDS011;11311;52.192;20.900;2024-03-23T09:55:43;16.20;;;11.57;;
22284;SDS011;11311;52.192;20.900;2024-03-23T09:58:12;14.48;;;12.98;;
22284;SDS011;11311;52.192;20.900;2024-03-23T10:00:39;17.02;;;14.07;;
22284;SDS011;11311;52.192;20.900;2024-03-23T10:03:05;15.57;;;12.52;;
22284;SDS011;11311;52.192;20.900;2024-03-23T10:05:33;20.23;;;12.35;;
22284;SDS011;11311;52.192;20.900;2024-03-23T10:07:59;21.10;;;13.27;;
22284;SDS011;11311;52.192;20.900;2024-03-23T10:10:28;15.50;;;11.65;;
22284;SDS011;11311;52.192;20.900;2024-03-23T10:12:54;13.85;;;10.90;;
22284;SDS011;11311;52.192;20.900;2024-03-23T10:15:22;15.73;;;12.55;;
22284;SDS011;11311;52.192;20.900;2024-03-23T10:17:48;15.60;;;11.75;;
22284;SDS011;11311;52.192;20.900;2024-03-23T10:20:18;14.15;;;12.05;;
22284;SDS011;11311;52.192;20.900;2024-03-23T10:22:45;15.65;;;12.38;;
22284;SDS011;11311;52.192;20.900;2024-03-23T10:25:12;13.40;;;10.77;;
22284;SDS011;11311;52.192;20.900;2024-03-23T10:27:41;13.20;;;11.75;;
22284;SDS011;11311;52.192;20.900;2024-03-23T10:30:09;15.60;;;9.70;;
22284;SDS011;11311;52.192;20.900;2024-03-23T10:32:36;13.85;;;11.55;;
22284;SDS011;11311;52.192;20.900;2024-03-23T10:35:16;14.98;;;9.65;;
22284;SDS011;11311;52.192;20.900;2024-03-23T10:37:44;12.10;;;9.20;;
22284;SDS011;11311;52.192;20.900;2024-03-23T10:40:13;12.90;;;8.88;;
22284;SDS011;11311;52.192;20.900;2024-03-23T10:42:41;13.38;;;9.20;;
22284;SDS011;11311;52.192;20.900;2024-03-23T10:45:08;13.38;;;9.70;;
22284;SDS011;11311;52.192;20.900;2024-03-23T10:47:36;13.68;;;10.50;;
22284;SDS011;11311;52.192;20.900;2024-03-23T10:50:03;12.95;;;9.48;;
22284;SDS011;11311;52.192;20.900;2024-03-23T10:52:30;12.50;;;11.07;;
22284;SDS011;11311;52.192;20.900;2024-03-23T10:54:57;12.98;;;10.50;;
22284;SDS011;11311;52.192;20.900;2024-03-23T10:57:26;8.82;;;7.10;;
22284;SDS011;11311;52.192;20.900;2024-03-23T10:59:54;10.32;;;8.88;;
22284;SDS011;11311;52.192;20.900;2024-03-23T11:02:22;9.88;;;8.05;;
22284;SDS011;11311;52.192;20.900;2024-03-23T11:04:48;12.75;;;10.38;;
22284;SDS011;11311;52.192;20.900;2024-03-23T11:10:06;12.20;;;9.00;;
22284;SDS011;11311;52.192;20.900;2024-03-23T11:12:51;10.90;;;9.80;;
22284;SDS011;11311;52.192;20.900;2024-03-23T11:15:18;10.40;;;9.30;;
22284;SDS011;11311;52.192;20.900;2024-03-23T11:20:30;10.00;;;8.15;;
22284;SDS011;11311;52.192;20.900;2024-03-23T11:22:58;10.07;;;8.82;;
22284;SDS011;11311;52.192;20.900;2024-03-23T11:25:25;11.32;;;8.85;;
22284;SDS011;11311;52.192;20.900;2024-03-23T11:27:53;11.25;;;9.32;;
22284;SDS011;11311;52.192;20.900;2024-03-23T11:30:21;12.35;;;9.80;;
22284;SDS011;11311;52.192;20.900;2024-03-23T11:32:49;11.30;;;9.50;;
22284;SDS011;11311;52.192;20.900;2024-03-23T11:35:25;14.10;;;8.70;;
22284;SDS011;11311;52.192;20.900;2024-03-23T11:38:05;10.50;;;7.55;;
22284;SDS011;11311;52.192;20.900;2024-03-23T11:40:34;13.23;;;7.20;;
22284;SDS011;11311;52.192;20.900;2024-03-23T11:43:01;12.02;;;7.43;;
22284;SDS011;11311;52.192;20.900;2024-03-23T11:45:33;7.72;;;6.88;;
22284;SDS011;11311;52.192;20.900;2024-03-23T11:48:01;9.48;;;7.35;;
22284;SDS011;11311;52.192;20.900;2024-03-23T11:50:27;13.13;;;7.22;;
22284;SDS011;11311;52.192;20.900;2024-03-23T11:53:05;10.10;;;7.63;;
22284;SDS011;11311;52.192;20.900;2024-03-23T11:55:38;8.77;;;7.40;;
22284;SDS011;11311;52.192;20.900;2024-03-23T11:58:05;9.82;;;7.00;;
22284;SDS011;11311;52.192;20.900;2024-03-23T12:00:34;11.70;;;7.50;;
22284;SDS011;11311;52.192;20.900;2024-03-23T12:03:01;8.23;;;7.03;;
22284;SDS011;11311;52.192;20.900;2024-03-23T12:05:28;8.88;;;7.72;;
22284;SDS011;11311;52.192;20.900;2024-03-23T12:07:55;9.25;;;7.40;;
22284;SDS011;11311;52.192;20.900;2024-03-23T12:10:21;11.30;;;7.50;;
22284;SDS011;11311;52.192;20.900;2024-03-23T12:12:59;11.93;;;7.68;;
22284;SDS011;11311;52.192;20.900;2024-03-23T12:15:25;7.90;;;7.00;;
22284;SDS011;11311;52.192;20.900;2024-03-23T12:17:57;12.68;;;8.93;;
22284;SDS011;11311;52.192;20.900;2024-03-23T12:20:31;17.02;;;8.40;;
22284;SDS011;11311;52.192;20.900;2024-03-23T12:23:04;9.35;;;8.30;;
22284;SDS011;11311;52.192;20.900;2024-03-23T12:25:30;9.75;;;8.10;;
22284;SDS011;11311;52.192;20.900;2024-03-23T12:27:58;9.23;;;8.23;;
22284;SDS011;11311;52.192;20.900;2024-03-23T12:30:24;11.73;;;8.50;;
22284;SDS011;11311;52.192;20.900;2024-03-23T12:32:52;11.15;;;6.93;;
22284;SDS011;11311;52.192;20.900;2024-03-23T12:35:19;8.52;;;7.68;;
22284;SDS011;11311;52.192;20.900;2024-03-23T12:37:46;10.68;;;7.88;;
22284;SDS011;11311;52.192;20.900;2024-03-23T12:40:12;10.07;;;9.00;;
22284;SDS011;11311;52.192;20.900;2024-03-23T12:42:40;13.52;;;9.55;;
22284;SDS011;11311;52.192;20.900;2024-03-23T12:45:06;10.18;;;8.50;;
22284;SDS011;11311;52.192;20.900;2024-03-23T12:47:34;11.27;;;8.70;;
22284;SDS011;11311;52.192;20.900;2024-03-23T12:50:00;13.60;;;8.43;;
22284;SDS011;11311;52.192;20.900;2024-03-23T12:52:28;12.90;;;9.93;;
22284;SDS011;11311;52.192;20.900;2024-03-23T12:54:55;11.23;;;9.25;;
22284;SDS011;11311;52.192;20.900;2024-03-23T12:57:23;11.55;;;9.95;;
22284;SDS011;11311;52.192;20.900;2024-03-23T12:59:50;9.95;;;8.43;;
22284;SDS011;11311;52.192;20.900;2024-03-23T13:02:18;10.70;;;9.00;;
22284;SDS011;11311;52.192;20.900;2024-03-23T13:04:45;9.50;;;8.45;;
22284;SDS011;11311;52.192;20.900;2024-03-23T13:07:13;12.20;;;7.95;;
22284;SDS011;11311;52.192;20.900;2024-03-23T13:09:40;12.20;;;9.10;;
22284;SDS011;11311;52.192;20.900;2024-03-23T13:12:08;10.35;;;8.00;;
22284;SDS011;11311;52.192;20.900;2024-03-23T13:14:34;11.23;;;8.30;;
22284;SDS011;11311;52.192;20.900;2024-03-23T13:17:01;10.10;;;7.47;;
22284;SDS011;11311;52.192;20.900;2024-03-23T13:19:28;14.43;;;8.43;;
22284;SDS011;11311;52.192;20.900;2024-03-23T13:21:57;9.25;;;7.28;;
22284;SDS011;11311;52.192;20.900;2024-03-23T13:24:23;9.82;;;7.55;;
22284;SDS011;11311;52.192;20.900;2024-03-23T13:26:52;12.38;;;7.93;;
22284;SDS011;11311;52.192;20.900;2024-03-23T13:29:19;11.90;;;7.75;;
22284;SDS011;11311;52.192;20.900;2024-03-23T13:31:46;11.90;;;6.95;;
22284;SDS011;11311;52.192;20.900;2024-03-23T13:34:12;14.50;;;7.80;;
22284;SDS011;11311;52.192;20.900;2024-03-23T13:36:40;9.27;;;6.93;;
22284;SDS011;11311;52.192;20.900;2024-03-23T13:39:07;10.73;;;6.78;;
22284;SDS011;11311;52.192;20.900;2024-03-23T13:41:37;8.93;;;7.57;;
22284;SDS011;11311;52.192;20.900;2024-03-23T13:44:05;10.90;;;8.05;;
22284;SDS011;11311;52.192;20.900;2024-03-23T13:46:32;9.82;;;6.90;;
22284;SDS011;11311;52.192;20.900;2024-03-23T13:48:59;10.93;;;7.68;;
22284;SDS011;11311;52.192;20.900;2024-03-23T13:51:26;8.65;;;6.90;;
22284;SDS011;11311;52.192;20.900;2024-03-23T13:53:53;9.57;;;7.15;;
22284;SDS011;11311;52.192;20.900;2024-03-23T13:56:20;8.07;;;6.93;;
22284;SDS011;11311;52.192;20.900;2024-03-23T13:58:46;7.82;;;6.57;;
22284;SDS011;11311;52.192;20.900;2024-03-23T14:01:15;11.88;;;7.38;;
22284;SDS011;11311;52.192;20.900;2024-03-23T14:03:41;9.77;;;6.75;;
22284;SDS011;11311;52.192;20.900;2024-03-23T14:06:09;6.38;;;5.72;;
22284;SDS011;11311;52.192;20.900;2024-03-23T14:08:36;8.32;;;6.07;;
22284;SDS011;11311;52.192;20.900;2024-03-23T14:11:05;7.63;;;6.45;;
22284;SDS011;11311;52.192;20.900;2024-03-23T14:13:31;9.95;;;6.47;;
22284;SDS011;11311;52.192;20.900;2024-03-23T14:15:58;9.38;;;6.68;;
22284;SDS011;11311;52.192;20.900;2024-03-23T14:18:26;11.82;;;7.20;;
22284;SDS011;11311;52.192;20.900;2024-03-23T14:20:56;13.82;;;6.97;;
22284;SDS011;11311;52.192;20.900;2024-03-23T14:23:24;8.10;;;7.32;;
22284;SDS011;11311;52.192;20.900;2024-03-23T14:25:54;12.50;;;7.63;;
22284;SDS011;11311;52.192;20.900;2024-03-23T14:28:22;8.77;;;7.35;;
22284;SDS011;11311;52.192;20.900;2024-03-23T14:30:49;16.65;;;7.88;;
22284;SDS011;11311;52.192;20.900;2024-03-23T14:33:15;10.50;;;8.20;;
22284;SDS011;11311;52.192;20.900;2024-03-23T14:35:51;14.65;;;8.07;;
22284;SDS011;11311;52.192;20.900;2024-03-23T14:38:17;10.85;;;7.90;;
22284;SDS011;11311;52.192;20.900;2024-03-23T14:40:44;13.43;;;9.40;;
22284;SDS011;11311;52.192;20.900;2024-03-23T14:43:10;12.60;;;8.35;;
22284;SDS011;11311;52.192;20.900;2024-03-23T14:45:37;12.00;;;8.20;;
22284;SDS011;11311;52.192;20.900;2024-03-23T14:48:04;12.63;;;8.38;;
22284;SDS011;11311;52.192;20.900;2024-03-23T14:53:02;10.63;;;7.28;;
22284;SDS011;11311;52.192;20.900;2024-03-23T14:55:29;10.90;;;8.20;;
22284;SDS011;11311;52.192;20.900;2024-03-23T14:57:55;10.98;;;8.50;;
22284;SDS011;11311;52.192;20.900;2024-03-23T15:00:22;14.82;;;9.00;;
22284;SDS011;11311;52.192;20.900;2024-03-23T15:02:48;15.23;;;9.65;;
22284;SDS011;11311;52.192;20.900;2024-03-23T15:05:15;12.85;;;11.13;;
22284;SDS011;11311;52.192;20.900;2024-03-23T15:07:41;14.30;;;10.65;;
22284;SDS011;11311;52.192;20.900;2024-03-23T15:10:10;18.45;;;11.18;;
22284;SDS011;11311;52.192;20.900;2024-03-23T15:12:37;16.85;;;13.00;;
22284;SDS011;11311;52.192;20.900;2024-03-23T15:15:05;19.02;;;13.15;;
22284;SDS011;11311;52.192;20.900;2024-03-23T15:17:31;20.95;;;15.57;;